sensor_id;sensor_type;location;lat;lon;timestamp;pressure;altitude;pressure_sealevel;temperature;humidity
71666;BME280;59503;53.486;10.196;2022-11-21T00:00:28;100589.00;;;-2.64;100.00
71666;BME280;59503;53.486;10.196;2022-11-21T00:02:56;100589.09;;;-2.74;100.00
71666;BME280;59503;53.486;10.196;2022-11-21T00:05:22;100588.06;;;-2.83;100.00
71666;BME280;59503;53.486;10.196;2022-11-21T00:07:48;100581.00;;;-2.98;100.00
71666;BME280;59503;53.486;10.196;2022-11-21T00:10:14;100585.56;;;-3.03;100.00
71666;BME280;59503;53.486;10.196;2022-11-21T00:12:39;100579.22;;;-3.12;100.00
71666;BME280;59503;53.486;10.196;2022-11-21T00:15:05;100583.53;;;-3.21;100.00
71666;BME280;59503;53.486;10.196;2022-11-21T00:17:30;100582.81;;;-3.32;100.00
71666;BME280;59503;53.486;10.196;2022-11-21T00:19:56;100576.22;;;-3.39;100.00
71666;BME280;59503;53.486;10.196;2022-11-21T00:22:22;100574.91;;;-3.47;100.00
71666;BME280;59503;53.486;10.196;2022-11-21T00:24:47;100582.09;;;-3.52;100.00
71666;BME280;59503;53.486;10.196;2022-11-21T00:27:12;100572.03;;;-3.60;100.00
71666;BME280;59503;53.486;10.196;2022-11-21T00:29:38;100574.44;;;-3.64;100.00
71666;BME280;59503;53.486;10.196;2022-11-21T00:32:03;100574.19;;;-3.67;100.00
71666;BME280;59503;53.486;10.196;2022-11-21T00:34:29;100563.59;;;-3.72;100.00
71666;BME280;59503;53.486;10.196;2022-11-21T00:36:54;100567.84;;;-3.71;100.00
71666;BME280;59503;53.486;10.196;2022-11-21T00:39:19;100564.66;;;-3.73;100.00
71666;BME280;59503;53.486;10.196;2022-11-21T00:41:45;100561.47;;;-3.70;100.00
71666;BME280;59503;53.486;10.196;2022-11-21T00:44:10;100560.66;;;-3.71;100.00
71666;BME280;59503;53.486;10.196;2022-11-21T00:46:36;100555.91;;;-3.74;100.00
71666;BME280;59503;53.486;10.196;2022-11-21T00:49:01;100553.28;;;-3.79;100.00
71666;BME280;59503;53.486;10.196;2022-11-21T00:51:26;100546.88;;;-3.73;100.00
71666;BME280;59503;53.486;10.196;2022-11-21T00:53:52;100553.78;;;-3.77;100.00
71666;BME280;59503;53.486;10.196;2022-11-21T00:56:17;100548.47;;;-3.72;100.00
71666;BME280;59503;53.486;10.196;2022-11-21T00:58:43;100558.78;;;-3.65;100.00
71666;BME280;59503;53.486;10.196;2022-11-21T01:01:11;100551.31;;;-3.58;100.00
71666;BME280;59503;53.486;10.196;2022-11-21T01:03:37;100540.69;;;-3.53;100.00
71666;BME280;59503;53.486;10.196;2022-11-21T01:06:05;100557.84;;;-3.41;100.00
71666;BME280;59503;53.486;10.196;2022-11-21T01:08:33;100540.56;;;-3.33;100.00
71666;BME280;59503;53.486;10.196;2022-11-21T01:11:03;100554.03;;;-3.20;100.00
71666;BME280;59503;53.486;10.196;2022-11-21T01:13:29;100554.25;;;-3.11;100.00
71666;BME280;59503;53.486;10.196;2022-11-21T01:15:54;100557.13;;;-3.03;100.00
71666;BME280;59503;53.486;10.196;2022-11-21T01:18:20;100549.34;;;-2.94;100.00
71666;BME280;59503;53.486;10.196;2022-11-21T01:20:45;100554.59;;;-2.84;100.00
71666;BME280;59503;53.486;10.196;2022-11-21T01:23:11;100551.88;;;-2.79;100.00
71666;BME280;59503;53.486;10.196;2022-11-21T01:25:36;100551.56;;;-2.73;100.00
71666;BME280;59503;53.486;10.196;2022-11-21T01:28:01;100552.03;;;-2.66;100.00
71666;BME280;59503;53.486;10.196;2022-11-21T01:30:27;100554.91;;;-2.57;100.00
71666;BME280;59503;53.486;10.196;2022-11-21T01:32:52;100551.34;;;-2.47;100.00
71666;BME280;59503;53.486;10.196;2022-11-21T01:35:18;100551.53;;;-2.39;100.00
71666;BME280;59503;53.486;10.196;2022-11-21T01:37:47;100552.00;;;-2.32;100.00
71666;BME280;59503;53.486;10.196;2022-11-21T01:40:13;100542.03;;;-2.21;100.00
71666;BME280;59503;53.486;10.196;2022-11-21T01:45:55;100551.75;;;-2.07;100.00
71666;BME280;59503;53.486;10.196;2022-11-21T01:51:20;100546.25;;;-1.92;100.00
71666;BME280;59503;53.486;10.196;2022-11-21T01:53:52;100544.59;;;-1.88;100.00
71666;BME280;59503;53.486;10.196;2022-11-21T01:56:21;100539.78;;;-1.86;100.00
71666;BME280;59503;53.486;10.196;2022-11-21T01:58:48;100545.56;;;-1.79;100.00
71666;BME280;59503;53.486;10.196;2022-11-21T02:01:14;100545.50;;;-1.74;100.00
71666;BME280;59503;53.486;10.196;2022-11-21T02:03:41;100544.13;;;-1.71;100.00
71666;BME280;59503;53.486;10.196;2022-11-21T02:06:08;100554.50;;;-1.70;100.00
71666;BME280;59503;53.486;10.196;2022-11-21T02:08:35;100549.97;;;-1.69;100.00
71666;BME280;59503;53.486;10.196;2022-11-21T02:11:25;100558.69;;;-1.64;100.00
71666;BME280;59503;53.486;10.196;2022-11-21T02:13:53;100548.38;;;-1.70;100.00
71666;BME280;59503;53.486;10.196;2022-11-21T02:16:20;100564.31;;;-1.65;100.00
71666;BME280;59503;53.486;10.196;2022-11-21T02:18:46;100556.31;;;-1.65;100.00
71666;BME280;59503;53.486;10.196;2022-11-21T02:21:19;100562.63;;;-1.61;100.00
71666;BME280;59503;53.486;10.196;2022-11-21T02:23:55;100556.53;;;-1.62;100.00
71666;BME280;59503;53.486;10.196;2022-11-21T02:26:22;100564.81;;;-1.63;100.00
71666;BME280;59503;53.486;10.196;2022-11-21T02:28:47;100549.31;;;-1.61;100.00
71666;BME280;59503;53.486;10.196;2022-11-21T02:31:13;100562.09;;;-1.58;100.00
71666;BME280;59503;53.486;10.196;2022-11-21T02:33:38;100559.72;;;-1.60;100.00
71666;BME280;59503;53.486;10.196;2022-11-21T02:36:04;100555.44;;;-1.61;100.00
71666;BME280;59503;53.486;10.196;2022-11-21T02:38:32;100546.66;;;-1.61;100.00
71666;BME280;59503;53.486;10.196;2022-11-21T02:41:18;100552.78;;;-1.61;100.00
71666;BME280;59503;53.486;10.196;2022-11-21T02:43:54;100562.88;;;-1.58;100.00
71666;BME280;59503;53.486;10.196;2022-11-21T02:46:21;100555.97;;;-1.59;100.00
71666;BME280;59503;53.486;10.196;2022-11-21T02:48:47;100555.97;;;-1.59;100.00
71666;BME280;59503;53.486;10.196;2022-11-21T02:51:12;100552.94;;;-1.52;100.00
71666;BME280;59503;53.486;10.196;2022-11-21T02:53:38;100548.47;;;-1.57;100.00
71666;BME280;59503;53.486;10.196;2022-11-21T02:56:03;100546.31;;;-1.55;100.00
71666;BME280;59503;53.486;10.196;2022-11-21T02:58:29;100548.41;;;-1.52;100.00
71666;BME280;59503;53.486;10.196;2022-11-21T03:00:54;100558.78;;;-1.50;100.00
71666;BME280;59503;53.486;10.196;2022-11-21T03:03:20;100552.13;;;-1.53;100.00
71666;BME280;59503;53.486;10.196;2022-11-21T03:05:45;100548.19;;;-1.55;100.00
71666;BME280;59503;53.486;10.196;2022-11-21T03:08:11;100543.66;;;-1.55;100.00
71666;BME280;59503;53.486;10.196;2022-11-21T03:10:36;100538.19;;;-1.63;100.00
71666;BME280;59503;53.486;10.196;2022-11-21T03:13:02;100538.41;;;-1.60;100.00
71666;BME280;59503;53.486;10.196;2022-11-21T03:15:29;100551.06;;;-1.52;100.00
71666;BME280;59503;53.486;10.196;2022-11-21T03:17:55;100544.72;;;-1.56;100.00
71666;BME280;59503;53.486;10.196;2022-11-21T03:20:21;100540.25;;;-1.60;100.00
71666;BME280;59503;53.486;10.196;2022-11-21T03:22:46;100539.41;;;-1.56;100.00
71666;BME280;59503;53.486;10.196;2022-11-21T03:25:12;100542.69;;;-1.64;100.00
71666;BME280;59503;53.486;10.196;2022-11-21T03:27:37;100538.19;;;-1.63;100.00
71666;BME280;59503;53.486;10.196;2022-11-21T03:30:03;100522.53;;;-1.70;100.00
71666;BME280;59503;53.486;10.196;2022-11-21T03:32:28;100531.03;;;-1.68;100.00
71666;BME280;59503;53.486;10.196;2022-11-21T03:34:54;100526.25;;;-1.71;100.00
71666;BME280;59503;53.486;10.196;2022-11-21T03:37:19;100531.53;;;-1.66;100.00
71666;BME280;59503;53.486;10.196;2022-11-21T03:39:45;100539.00;;;-1.68;100.00
71666;BME280;59503;53.486;10.196;2022-11-21T03:42:10;100537.38;;;-1.64;100.00
71666;BME280;59503;53.486;10.196;2022-11-21T03:44:35;100529.16;;;-1.67;100.00
71666;BME280;59503;53.486;10.196;2022-11-21T03:47:01;100528.34;;;-1.68;100.00
71666;BME280;59503;53.486;10.196;2022-11-21T03:49:26;100523.09;;;-1.73;100.00
71666;BME280;59503;53.486;10.196;2022-11-21T03:51:52;100525.75;;;-1.73;100.00
71666;BME280;59503;53.486;10.196;2022-11-21T03:54:17;100528.25;;;-1.81;100.00
71666;BME280;59503;53.486;10.196;2022-11-21T03:56:42;100529.56;;;-1.79;100.00
71666;BME280;59503;53.486;10.196;2022-11-21T03:59:08;100532.88;;;-1.87;100.00
71666;BME280;59503;53.486;10.196;2022-11-21T04:01:33;100535.03;;;-1.89;100.00
71666;BME280;59503;53.486;10.196;2022-11-21T04:03:58;100540.28;;;-1.84;100.00
71666;BME280;59503;53.486;10.196;2022-11-21T04:06:24;100538.44;;;-1.83;100.00
71666;BME280;59503;53.486;10.196;2022-11-21T04:08:50;100534.44;;;-1.86;100.00
71666;BME280;59503;53.486;10.196;2022-11-21T04:11:16;100537.97;;;-1.90;100.00
71666;BME280;59503;53.486;10.196;2022-11-21T04:13:41;100532.41;;;-1.94;100.00
71666;BME280;59503;53.486;10.196;2022-11-21T04:16:07;100532.69;;;-1.95;100.00
71666;BME280;59503;53.486;10.196;2022-11-21T04:18:34;100545.22;;;-1.96;100.00
71666;BME280;59503;53.486;10.196;2022-11-21T04:21:02;100552.69;;;-1.98;100.00
71666;BME280;59503;53.486;10.196;2022-11-21T04:23:28;100545.56;;;-2.02;100.00
71666;BME280;59503;53.486;10.196;2022-11-21T04:25:54;100544.47;;;-2.01;100.00
71666;BME280;59503;53.486;10.196;2022-11-21T04:28:20;100550.81;;;-1.97;100.00
71666;BME280;59503;53.486;10.196;2022-11-21T04:30:45;100545.34;;;-2.06;100.00
71666;BME280;59503;53.486;10.196;2022-11-21T04:33:13;100550.41;;;-2.09;100.00
71666;BME280;59503;53.486;10.196;2022-11-21T04:35:38;100550.41;;;-2.09;100.00
71666;BME280;59503;53.486;10.196;2022-11-21T04:38:04;100552.84;;;-2.13;100.00
71666;BME280;59503;53.486;10.196;2022-11-21T04:40:29;100547.63;;;-2.23;100.00
71666;BME280;59503;53.486;10.196;2022-11-21T04:42:55;100550.53;;;-2.19;100.00
71666;BME280;59503;53.486;10.196;2022-11-21T04:45:20;100550.00;;;-2.21;100.00
71666;BME280;59503;53.486;10.196;2022-11-21T04:47:46;100554.81;;;-2.23;100.00
71666;BME280;59503;53.486;10.196;2022-11-21T04:50:13;100558.84;;;-2.26;100.00
71666;BME280;59503;53.486;10.196;2022-11-21T04:52:39;100562.97;;;-2.15;100.00
71666;BME280;59503;53.486;10.196;2022-11-21T04:55:05;100552.03;;;-2.08;100.00
71666;BME280;59503;53.486;10.196;2022-11-21T04:57:32;100556.38;;;-2.17;100.00
71666;BME280;59503;53.486;10.196;2022-11-21T04:59:57;100555.09;;;-2.25;100.00
71666;BME280;59503;53.486;10.196;2022-11-21T05:02:23;100567.06;;;-2.22;100.00
71666;BME280;59503;53.486;10.196;2022-11-21T05:04:49;100565.47;;;-2.23;100.00
71666;BME280;59503;53.486;10.196;2022-11-21T05:07:15;100553.06;;;-2.33;100.00
71666;BME280;59503;53.486;10.196;2022-11-21T05:09:41;100558.34;;;-2.28;100.00
71666;BME280;59503;53.486;10.196;2022-11-21T05:12:08;100549.72;;;-2.20;100.00
71666;BME280;59503;53.486;10.196;2022-11-21T05:14:52;100555.97;;;-2.29;100.00
71666;BME280;59503;53.486;10.196;2022-11-21T05:17:18;100555.09;;;-2.25;100.00
71666;BME280;59503;53.486;10.196;2022-11-21T05:19:43;100553.28;;;-2.29;100.00
71666;BME280;59503;53.486;10.196;2022-11-21T05:22:09;100551.94;;;-2.27;100.00
71666;BME280;59503;53.486;10.196;2022-11-21T05:24:34;100557.28;;;-2.27;100.00
71666;BME280;59503;53.486;10.196;2022-11-21T05:26:59;100562.09;;;-2.29;100.00
71666;BME280;59503;53.486;10.196;2022-11-21T05:29:25;100558.38;;;-2.33;100.00
71666;BME280;59503;53.486;10.196;2022-11-21T05:31:50;100566.59;;;-2.29;100.00
71666;BME280;59503;53.486;10.196;2022-11-21T05:34:16;100562.94;;;-2.38;100.00
71666;BME280;59503;53.486;10.196;2022-11-21T05:36:41;100564.28;;;-2.36;100.00
71666;BME280;59503;53.486;10.196;2022-11-21T05:39:06;100552.53;;;-2.35;100.00
71666;BME280;59503;53.486;10.196;2022-11-21T05:41:32;100558.66;;;-2.34;100.00
71666;BME280;59503;53.486;10.196;2022-11-21T05:43:57;100560.53;;;-2.35;100.00
71666;BME280;59503;53.486;10.196;2022-11-21T05:46:24;100562.66;;;-2.32;100.00
71666;BME280;59503;53.486;10.196;2022-11-21T05:48:51;100557.88;;;-2.35;100.00
71666;BME280;59503;53.486;10.196;2022-11-21T05:51:17;100558.84;;;-2.26;100.00
71666;BME280;59503;53.486;10.196;2022-11-21T05:53:44;100559.88;;;-2.22;100.00
71666;BME280;59503;53.486;10.196;2022-11-21T05:56:11;100560.00;;;-2.32;100.00
71666;BME280;59503;53.486;10.196;2022-11-21T05:58:37;100561.63;;;-2.36;100.00
71666;BME280;59503;53.486;10.196;2022-11-21T06:01:04;100559.81;;;-2.40;100.00
71666;BME280;59503;53.486;10.196;2022-11-21T06:03:33;100572.81;;;-2.39;100.00
71666;BME280;59503;53.486;10.196;2022-11-21T06:06:13;100566.38;;;-2.33;100.00
71666;BME280;59503;53.486;10.196;2022-11-21T06:08:41;100576.09;;;-2.47;100.00
71666;BME280;59503;53.486;10.196;2022-11-21T06:11:09;100569.44;;;-2.49;100.00
71666;BME280;59503;53.486;10.196;2022-11-21T06:13:35;100569.72;;;-2.51;100.00
71666;BME280;59503;53.486;10.196;2022-11-21T06:16:07;100574.53;;;-2.53;100.00
71666;BME280;59503;53.486;10.196;2022-11-21T06:18:44;100565.94;;;-2.45;100.00
71666;BME280;59503;53.486;10.196;2022-11-21T06:21:20;100568.41;;;-2.54;100.00
71666;BME280;59503;53.486;10.196;2022-11-21T06:23:50;100572.91;;;-2.49;100.00
71666;BME280;59503;53.486;10.196;2022-11-21T06:26:18;100558.25;;;-2.46;100.00
71666;BME280;59503;53.486;10.196;2022-11-21T06:28:44;100563.13;;;-2.59;100.00
71666;BME280;59503;53.486;10.196;2022-11-21T06:31:16;100566.91;;;-2.65;100.00
71666;BME280;59503;53.486;10.196;2022-11-21T06:33:42;100555.28;;;-2.74;100.00
71666;BME280;59503;53.486;10.196;2022-11-21T06:36:15;100560.34;;;-2.77;100.00
71666;BME280;59503;53.486;10.196;2022-11-21T06:38:42;100564.09;;;-2.78;100.00
71666;BME280;59503;53.486;10.196;2022-11-21T06:41:12;100570.47;;;-2.74;100.00
71666;BME280;59503;53.486;10.196;2022-11-21T06:43:38;100560.44;;;-2.87;100.00
71666;BME280;59503;53.486;10.196;2022-11-21T06:46:03;100574.25;;;-2.85;100.00
71666;BME280;59503;53.486;10.196;2022-11-21T06:48:33;100569.50;;;-2.88;100.00
71666;BME280;59503;53.486;10.196;2022-11-21T06:51:04;100568.94;;;-2.85;100.00
71666;BME280;59503;53.486;10.196;2022-11-21T06:53:30;100569.50;;;-2.88;100.00
71666;BME280;59503;53.486;10.196;2022-11-21T06:55:57;100570.53;;;-2.84;100.00
71666;BME280;59503;53.486;10.196;2022-11-21T06:58:24;100570.53;;;-2.84;100.00
71666;BME280;59503;53.486;10.196;2022-11-21T07:00:50;100579.53;;;-2.80;100.00
71666;BME280;59503;53.486;10.196;2022-11-21T07:03:15;100571.06;;;-2.87;100.00
71666;BME280;59503;53.486;10.196;2022-11-21T07:05:41;100576.16;;;-2.86;100.00
71666;BME280;59503;53.486;10.196;2022-11-21T07:08:06;100584.81;;;-2.75;100.00
71666;BME280;59503;53.486;10.196;2022-11-21T07:10:31;100586.25;;;-2.88;100.00
71666;BME280;59503;53.486;10.196;2022-11-21T07:13:00;100587.66;;;-3.00;100.00
71666;BME280;59503;53.486;10.196;2022-11-21T07:15:46;100579.72;;;-3.05;100.00
71666;BME280;59503;53.486;10.196;2022-11-21T07:18:12;100587.72;;;-3.10;100.00
71666;BME280;59503;53.486;10.196;2022-11-21T07:20:38;100583.75;;;-3.13;100.00
71666;BME280;59503;53.486;10.196;2022-11-21T07:23:04;100587.66;;;-3.00;100.00
71666;BME280;59503;53.486;10.196;2022-11-21T07:25:30;100571.53;;;-3.14;100.00
71666;BME280;59503;53.486;10.196;2022-11-21T07:27:59;100581.09;;;-3.13;100.00
71666;BME280;59503;53.486;10.196;2022-11-21T07:30:25;100570.97;;;-3.11;100.00
71666;BME280;59503;53.486;10.196;2022-11-21T07:32:57;100575.44;;;-3.01;100.00
71666;BME280;59503;53.486;10.196;2022-11-21T07:35:23;100578.88;;;-2.96;100.00
71666;BME280;59503;53.486;10.196;2022-11-21T07:37:49;100569.75;;;-2.85;100.00
71666;BME280;59503;53.486;10.196;2022-11-21T07:40:14;100566.59;;;-2.92;100.00
71666;BME280;59503;53.486;10.196;2022-11-21T07:42:40;100564.97;;;-2.88;100.00
71666;BME280;59503;53.486;10.196;2022-11-21T07:45:06;100563.13;;;-2.92;100.00
71666;BME280;59503;53.486;10.196;2022-11-21T07:47:31;100577.50;;;-2.93;100.00
71666;BME280;59503;53.486;10.196;2022-11-21T07:49:57;100575.38;;;-2.91;100.00
71666;BME280;59503;53.486;10.196;2022-11-21T07:52:22;100574.91;;;-3.03;100.00
71666;BME280;59503;53.486;10.196;2022-11-21T07:54:49;100569.84;;;-3.00;100.00
71666;BME280;59503;53.486;10.196;2022-11-21T07:57:14;100574.59;;;-2.97;100.00
71666;BME280;59503;53.486;10.196;2022-11-21T07:59:40;100567.38;;;-2.86;100.00
71666;BME280;59503;53.486;10.196;2022-11-21T08:02:05;100571.38;;;-2.94;100.00
71666;BME280;59503;53.486;10.196;2022-11-21T08:04:31;100571.94;;;-2.97;100.00
71666;BME280;59503;53.486;10.196;2022-11-21T08:06:56;100560.75;;;-2.94;100.00
71666;BME280;59503;53.486;10.196;2022-11-21T08:09:21;100542.41;;;-2.95;100.00
71666;BME280;59503;53.486;10.196;2022-11-21T08:11:47;100563.94;;;-2.92;100.00
71666;BME280;59503;53.486;10.196;2022-11-21T08:14:13;100563.41;;;-2.94;100.00
71666;BME280;59503;53.486;10.196;2022-11-21T08:16:39;100576.44;;;-2.92;100.00
71666;BME280;59503;53.486;10.196;2022-11-21T08:19:04;100571.06;;;-2.87;100.00
71666;BME280;59503;53.486;10.196;2022-11-21T08:21:30;100575.38;;;-2.91;100.00
71666;BME280;59503;53.486;10.196;2022-11-21T08:23:56;100570.56;;;-2.89;100.00
71666;BME280;59503;53.486;10.196;2022-11-21T08:26:21;100574.50;;;-2.82;100.00
71666;BME280;59503;53.486;10.196;2022-11-21T08:28:47;100579.84;;;-2.87;100.00
71666;BME280;59503;53.486;10.196;2022-11-21T08:31:12;100548.31;;;-2.98;100.00
71666;BME280;59503;53.486;10.196;2022-11-21T08:33:38;100567.09;;;-2.85;100.00
71666;BME280;59503;53.486;10.196;2022-11-21T08:36:04;100578.44;;;-2.74;100.00
71666;BME280;59503;53.486;10.196;2022-11-21T08:38:30;100570.53;;;-2.50;100.00
71666;BME280;59503;53.486;10.196;2022-11-21T08:40:55;100556.53;;;-2.61;100.00
71666;BME280;59503;53.486;10.196;2022-11-21T08:43:39;100551.75;;;-2.64;100.00
71666;BME280;59503;53.486;10.196;2022-11-21T08:46:05;100553.38;;;-2.68;100.00
71666;BME280;59503;53.486;10.196;2022-11-21T08:48:30;100551.25;;;-2.66;100.00
71666;BME280;59503;53.486;10.196;2022-11-21T08:50:56;100555.47;;;-2.65;100.00
71666;BME280;59503;53.486;10.196;2022-11-21T08:53:22;100552.25;;;-2.62;100.00
71666;BME280;59503;53.486;10.196;2022-11-21T08:55:47;100547.75;;;-2.62;100.00
71666;BME280;59503;53.486;10.196;2022-11-21T08:58:13;100556.81;;;-2.63;100.00
71666;BME280;59503;53.486;10.196;2022-11-21T09:00:38;100552.25;;;-2.62;100.00
71666;BME280;59503;53.486;10.196;2022-11-21T09:03:04;100556.03;;;-2.68;100.00
71666;BME280;59503;53.486;10.196;2022-11-21T09:05:29;100559.25;;;-2.71;100.00
71666;BME280;59503;53.486;10.196;2022-11-21T09:07:56;100555.44;;;-2.60;100.00
71666;BME280;59503;53.486;10.196;2022-11-21T09:10:22;100561.28;;;-2.58;100.00
71666;BME280;59503;53.486;10.196;2022-11-21T09:12:48;100566.00;;;-2.50;100.00
71666;BME280;59503;53.486;10.196;2022-11-21T09:15:13;100564.66;;;-2.47;100.00
71666;BME280;59503;53.486;10.196;2022-11-21T09:18:01;100565.84;;;-2.35;100.00
71666;BME280;59503;53.486;10.196;2022-11-21T09:20:30;100561.31;;;-2.34;100.00
71666;BME280;59503;53.486;10.196;2022-11-21T09:22:57;100568.66;;;-2.21;100.00
71666;BME280;59503;53.486;10.196;2022-11-21T09:25:22;100563.88;;;-2.24;100.00
71666;BME280;59503;53.486;10.196;2022-11-21T09:27:47;100564.22;;;-2.31;100.00
71666;BME280;59503;53.486;10.196;2022-11-21T09:30:13;100571.13;;;-2.30;100.00
71666;BME280;59503;53.486;10.196;2022-11-21T09:32:39;100571.13;;;-2.30;100.00
71666;BME280;59503;53.486;10.196;2022-11-21T09:35:04;100575.06;;;-2.22;100.00
71666;BME280;59503;53.486;10.196;2022-11-21T09:37:35;100575.63;;;-2.25;100.00
71666;BME280;59503;53.486;10.196;2022-11-21T09:40:02;100569.53;;;-2.31;100.00
71666;BME280;59503;53.486;10.196;2022-11-21T09:43:02;100576.06;;;-2.18;100.00
71666;BME280;59503;53.486;10.196;2022-11-21T09:45:35;100578.53;;;-2.22;100.00
71666;BME280;59503;53.486;10.196;2022-11-21T09:48:13;100578.97;;;-2.15;100.00
71666;BME280;59503;53.486;10.196;2022-11-21T09:50:43;100575.47;;;-2.10;100.00
71666;BME280;59503;53.486;10.196;2022-11-21T09:53:31;100564.19;;;-2.02;100.00
71666;BME280;59503;53.486;10.196;2022-11-21T09:56:11;100559.34;;;-1.95;100.00
71666;BME280;59503;53.486;10.196;2022-11-21T09:58:46;100563.75;;;-1.86;100.00
71666;BME280;59503;53.486;10.196;2022-11-21T10:01:14;100560.22;;;-1.81;100.00
71666;BME280;59503;53.486;10.196;2022-11-21T10:03:45;100559.38;;;-1.77;100.00
71666;BME280;59503;53.486;10.196;2022-11-21T10:06:25;100559.25;;;-1.67;100.00
71666;BME280;59503;53.486;10.196;2022-11-21T10:09:26;100554.81;;;-1.53;100.00
71666;BME280;59503;53.486;10.196;2022-11-21T10:12:17;100561.50;;;-1.55;100.00
71666;BME280;59503;53.486;10.196;2022-11-21T10:15:13;100560.06;;;-1.48;100.00
71666;BME280;59503;53.486;10.196;2022-11-21T10:25:56;100558.88;;;-0.99;100.00
71666;BME280;59503;53.486;10.196;2022-11-21T10:28:55;100571.03;;;-0.93;100.00
71666;BME280;59503;53.486;10.196;2022-11-21T10:31:21;100551.06;;;-0.77;100.00
71666;BME280;59503;53.486;10.196;2022-11-21T10:33:49;100551.84;;;-0.77;100.00
71666;BME280;59503;53.486;10.196;2022-11-21T10:36:26;100555.03;;;-0.75;100.00
71666;BME280;59503;53.486;10.196;2022-11-21T10:38:59;100561.59;;;-0.67;100.00
71666;BME280;59503;53.486;10.196;2022-11-21T10:44:24;100546.97;;;-0.56;100.00
71666;BME280;59503;53.486;10.196;2022-11-21T10:47:29;100545.31;;;-0.52;100.00
71666;BME280;59503;53.486;10.196;2022-11-21T10:50:04;100543.66;;;-0.67;100.00
71666;BME280;59503;53.486;10.196;2022-11-21T10:55:12;100530.91;;;-0.70;100.00
71666;BME280;59503;53.486;10.196;2022-11-21T10:57:44;100528.03;;;-0.73;100.00
71666;BME280;59503;53.486;10.196;2022-11-21T11:02:36;100524.94;;;-0.80;100.00
71666;BME280;59503;53.486;10.196;2022-11-21T11:05:28;100522.78;;;-0.78;100.00
71666;BME280;59503;53.486;10.196;2022-11-21T11:10:30;100513.72;;;-0.77;100.00
71666;BME280;59503;53.486;10.196;2022-11-21T11:13:13;100508.69;;;-0.65;100.00
71666;BME280;59503;53.486;10.196;2022-11-21T11:16:13;100511.38;;;-0.52;100.00
71666;BME280;59503;53.486;10.196;2022-11-21T11:18:46;100515.75;;;-0.56;100.00
71666;BME280;59503;53.486;10.196;2022-11-21T11:21:19;100503.47;;;-0.57;100.00
71666;BME280;59503;53.486;10.196;2022-11-21T11:23:46;100515.56;;;-0.46;100.00
71666;BME280;59503;53.486;10.196;2022-11-21T11:26:24;100510.44;;;-0.29;100.00
71666;BME280;59503;53.486;10.196;2022-11-21T11:28:50;100507.28;;;-0.17;100.00
71666;BME280;59503;53.486;10.196;2022-11-21T11:31:15;100493.94;;;-0.17;100.00
71666;BME280;59503;53.486;10.196;2022-11-21T11:39:38;100507.50;;;-0.14;100.00
71666;BME280;59503;53.486;10.196;2022-11-21T11:42:18;100499.75;;;-0.15;100.00
71666;BME280;59503;53.486;10.196;2022-11-21T11:47:58;100508.25;;;-0.13;100.00
71666;BME280;59503;53.486;10.196;2022-11-21T11:50:50;100505.19;;;-0.20;100.00
71666;BME280;59503;53.486;10.196;2022-11-21T11:53:38;100505.78;;;-0.23;100.00
71666;BME280;59503;53.486;10.196;2022-11-21T11:56:24;100508.47;;;-0.23;100.00
71666;BME280;59503;53.486;10.196;2022-11-21T12:02:18;100493.44;;;-0.19;100.00
71666;BME280;59503;53.486;10.196;2022-11-21T12:05:11;100492.25;;;-0.13;100.00
71666;BME280;59503;53.486;10.196;2022-11-21T12:07:49;100485.13;;;-0.04;100.00
71666;BME280;59503;53.486;10.196;2022-11-21T12:10:53;100480.38;;;0.07;100.00
71666;BME280;59503;53.486;10.196;2022-11-21T12:13:40;100462.53;;;0.16;100.00
71666;BME280;59503;53.486;10.196;2022-11-21T12:16:09;100457.38;;;0.33;100.00
71666;BME280;59503;53.486;10.196;2022-11-21T12:21:15;100443.09;;;0.37;100.00
71666;BME280;59503;53.486;10.196;2022-11-21T12:23:49;100440.91;;;0.39;100.00
71666;BME280;59503;53.486;10.196;2022-11-21T12:26:26;100430.72;;;0.41;100.00
71666;BME280;59503;53.486;10.196;2022-11-21T12:34:56;100427.31;;;0.71;100.00
71666;BME280;59503;53.486;10.196;2022-11-21T12:46:05;100410.59;;;0.88;100.00
71666;BME280;59503;53.486;10.196;2022-11-21T12:48:57;100400.22;;;0.86;100.00
71666;BME280;59503;53.486;10.196;2022-11-21T12:57:15;100393.28;;;0.85;97.55
71666;BME280;59503;53.486;10.196;2022-11-21T13:00:14;100394.38;;;0.84;96.31
71666;BME280;59503;53.486;10.196;2022-11-21T13:05:10;100392.19;;;0.86;96.67
71666;BME280;59503;53.486;10.196;2022-11-21T13:07:37;100394.50;;;0.79;97.09
71666;BME280;59503;53.486;10.196;2022-11-21T13:10:03;100388.50;;;0.74;97.30
71666;BME280;59503;53.486;10.196;2022-11-21T13:12:39;100378.56;;;0.74;97.95
71666;BME280;59503;53.486;10.196;2022-11-21T13:15:27;100380.34;;;0.79;97.15
71666;BME280;59503;53.486;10.196;2022-11-21T13:17:58;100380.16;;;0.75;97.30
71666;BME280;59503;53.486;10.196;2022-11-21T13:20:33;100370.72;;;0.78;97.63
71666;BME280;59503;53.486;10.196;2022-11-21T13:23:00;100371.84;;;0.77;96.70
71666;BME280;59503;53.486;10.196;2022-11-21T13:30:52;100379.56;;;0.78;97.25
71666;BME280;59503;53.486;10.196;2022-11-21T13:52:32;100374.56;;;0.85;94.95
71666;BME280;59503;53.486;10.196;2022-11-21T14:00:52;100370.41;;;0.79;95.68
71666;BME280;59503;53.486;10.196;2022-11-21T14:03:42;100373.72;;;0.76;95.41
71666;BME280;59503;53.486;10.196;2022-11-21T14:12:17;100369.03;;;0.82;94.01
71666;BME280;59503;53.486;10.196;2022-11-21T14:14:50;100377.50;;;0.75;94.69
71666;BME280;59503;53.486;10.196;2022-11-21T14:20:18;100367.16;;;0.60;95.70
71666;BME280;59503;53.486;10.196;2022-11-21T14:22:53;100380.78;;;0.50;96.46